sensor_id;sensor_type;location;lat;lon;timestamp;temperature;humidity
16955;DHT22;8594;52.052;8.354;2022-07-29T00:00:29;19.80;97.60
16955;DHT22;8594;52.052;8.354;2022-07-29T00:02:56;19.70;97.80
16955;DHT22;8594;52.052;8.354;2022-07-29T00:05:23;19.60;98.30
16955;DHT22;8594;52.052;8.354;2022-07-29T00:07:50;19.60;98.00
16955;DHT22;8594;52.052;8.354;2022-07-29T00:10:17;19.50;98.10
16955;DHT22;8594;52.052;8.354;2022-07-29T00:12:43;19.50;98.20
16955;DHT22;8594;52.052;8.354;2022-07-29T00:15:13;19.40;98.30
16955;DHT22;8594;52.052;8.354;2022-07-29T00:17:39;19.20;98.40
16955;DHT22;8594;52.052;8.354;2022-07-29T00:20:07;19.10;98.60
16955;DHT22;8594;52.052;8.354;2022-07-29T00:22:37;19.10;98.70
16955;DHT22;8594;52.052;8.354;2022-07-29T00:25:05;19.20;98.70
16955;DHT22;8594;52.052;8.354;2022-07-29T00:27:34;19.20;98.70
16955;DHT22;8594;52.052;8.354;2022-07-29T00:30:01;19.20;98.80
16955;DHT22;8594;52.052;8.354;2022-07-29T00:32:30;19.20;98.70
16955;DHT22;8594;52.052;8.354;2022-07-29T00:34:57;19.30;98.60
16955;DHT22;8594;52.052;8.354;2022-07-29T00:37:42;19.30;98.50
16955;DHT22;8594;52.052;8.354;2022-07-29T00:40:09;19.30;98.60
16955;DHT22;8594;52.052;8.354;2022-07-29T00:42:43;19.40;98.40
16955;DHT22;8594;52.052;8.354;2022-07-29T00:45:11;19.50;98.40
16955;DHT22;8594;52.052;8.354;2022-07-29T00:47:40;19.50;98.40
16955;DHT22;8594;52.052;8.354;2022-07-29T00:50:09;19.60;98.20
16955;DHT22;8594;52.052;8.354;2022-07-29T00:52:39;19.50;98.20
16955;DHT22;8594;52.052;8.354;2022-07-29T00:55:08;19.40;98.20
16955;DHT22;8594;52.052;8.354;2022-07-29T00:57:37;19.30;98.50
16955;DHT22;8594;52.052;8.354;2022-07-29T01:00:07;19.30;98.80
16955;DHT22;8594;52.052;8.354;2022-07-29T01:02:36;19.40;98.70
16955;DHT22;8594;52.052;8.354;2022-07-29T01:05:05;19.30;98.50
16955;DHT22;8594;52.052;8.354;2022-07-29T01:07:34;19.70;98.30
16955;DHT22;8594;52.052;8.354;2022-07-29T01:10:03;19.70;98.00
16955;DHT22;8594;52.052;8.354;2022-07-29T01:12:34;19.80;97.60
16955;DHT22;8594;52.052;8.354;2022-07-29T01:15:05;20.00;97.60
16955;DHT22;8594;52.052;8.354;2022-07-29T01:17:36;20.00;97.40
16955;DHT22;8594;52.052;8.354;2022-07-29T01:20:25;20.10;96.90
16955;DHT22;8594;52.052;8.354;2022-07-29T01:23:13;20.20;96.60
16955;DHT22;8594;52.052;8.354;2022-07-29T01:26:33;20.10;96.70
16955;DHT22;8594;52.052;8.354;2022-07-29T01:29:12;20.30;96.60
16955;DHT22;8594;52.052;8.354;2022-07-29T01:31:48;20.30;96.70
16955;DHT22;8594;52.052;8.354;2022-07-29T01:34:29;20.30;96.30
16955;DHT22;8594;52.052;8.354;2022-07-29T01:37:06;20.30;96.20
16955;DHT22;8594;52.052;8.354;2022-07-29T01:39:39;20.20;96.10
16955;DHT22;8594;52.052;8.354;2022-07-29T01:42:14;20.00;96.80
16955;DHT22;8594;52.052;8.354;2022-07-29T01:44:53;20.00;97.60
16955;DHT22;8594;52.052;8.354;2022-07-29T01:47:26;20.00;97.50
16955;DHT22;8594;52.052;8.354;2022-07-29T01:49:59;20.00;97.20
16955;DHT22;8594;52.052;8.354;2022-07-29T01:52:34;19.90;97.30
16955;DHT22;8594;52.052;8.354;2022-07-29T01:55:09;20.30;95.90
16955;DHT22;8594;52.052;8.354;2022-07-29T01:57:40;20.30;96.20
16955;DHT22;8594;52.052;8.354;2022-07-29T02:00:13;20.30;96.90
16955;DHT22;8594;52.052;8.354;2022-07-29T02:02:44;20.20;96.80
16955;DHT22;8594;52.052;8.354;2022-07-29T02:05:15;20.20;97.00
16955;DHT22;8594;52.052;8.354;2022-07-29T02:07:46;20.20;96.90
16955;DHT22;8594;52.052;8.354;2022-07-29T02:10:15;20.20;97.00
16955;DHT22;8594;52.052;8.354;2022-07-29T02:12:46;20.40;96.70
16955;DHT22;8594;52.052;8.354;2022-07-29T02:15:16;20.40;96.70
16955;DHT22;8594;52.052;8.354;2022-07-29T02:17:48;20.50;96.50
16955;DHT22;8594;52.052;8.354;2022-07-29T02:20:19;20.30;96.70
16955;DHT22;8594;52.052;8.354;2022-07-29T02:22:50;20.20;96.70
16955;DHT22;8594;52.052;8.354;2022-07-29T02:25:21;20.30;96.60
16955;DHT22;8594;52.052;8.354;2022-07-29T02:27:50;20.30;96.60
16955;DHT22;8594;52.052;8.354;2022-07-29T02:30:22;20.10;96.60
16955;DHT22;8594;52.052;8.354;2022-07-29T02:32:50;20.00;96.80
16955;DHT22;8594;52.052;8.354;2022-07-29T02:35:20;19.90;96.90
16955;DHT22;8594;52.052;8.354;2022-07-29T02:37:48;19.70;97.20
16955;DHT22;8594;52.052;8.354;2022-07-29T02:40:31;19.70;97.30
16955;DHT22;8594;52.052;8.354;2022-07-29T02:43:00;19.70;97.30
16955;DHT22;8594;52.052;8.354;2022-07-29T02:45:30;19.70;97.50
16955;DHT22;8594;52.052;8.354;2022-07-29T02:48:00;19.90;97.30
16955;DHT22;8594;52.052;8.354;2022-07-29T02:50:35;19.80;97.60
16955;DHT22;8594;52.052;8.354;2022-07-29T02:53:08;19.90;97.20
16955;DHT22;8594;52.052;8.354;2022-07-29T02:55:43;19.90;97.30
16955;DHT22;8594;52.052;8.354;2022-07-29T02:58:17;19.90;97.20
16955;DHT22;8594;52.052;8.354;2022-07-29T03:00:53;19.80;97.30
16955;DHT22;8594;52.052;8.354;2022-07-29T03:03:25;19.70;97.40
16955;DHT22;8594;52.052;8.354;2022-07-29T03:06:00;19.70;97.50
16955;DHT22;8594;52.052;8.354;2022-07-29T03:08:29;19.70;97.40
16955;DHT22;8594;52.052;8.354;2022-07-29T03:10:57;19.70;97.40
16955;DHT22;8594;52.052;8.354;2022-07-29T03:13:26;19.60;97.60
16955;DHT22;8594;52.052;8.354;2022-07-29T03:15:55;19.60;97.60
16955;DHT22;8594;52.052;8.354;2022-07-29T03:18:24;19.70;97.50
16955;DHT22;8594;52.052;8.354;2022-07-29T03:20:52;19.70;97.30
16955;DHT22;8594;52.052;8.354;2022-07-29T03:23:19;19.60;97.50
16955;DHT22;8594;52.052;8.354;2022-07-29T03:25:48;19.60;97.70
16955;DHT22;8594;52.052;8.354;2022-07-29T03:28:15;19.60;97.70
16955;DHT22;8594;52.052;8.354;2022-07-29T03:30:42;19.50;97.60
16955;DHT22;8594;52.052;8.354;2022-07-29T03:33:10;19.50;97.90
16955;DHT22;8594;52.052;8.354;2022-07-29T03:35:37;19.50;97.80
16955;DHT22;8594;52.052;8.354;2022-07-29T03:38:04;19.50;97.60
16955;DHT22;8594;52.052;8.354;2022-07-29T03:40:33;19.60;97.70
16955;DHT22;8594;52.052;8.354;2022-07-29T03:43:07;19.50;97.60
16955;DHT22;8594;52.052;8.354;2022-07-29T03:45:37;19.60;97.80
16955;DHT22;8594;52.052;8.354;2022-07-29T03:48:07;19.60;97.80
16955;DHT22;8594;52.052;8.354;2022-07-29T03:50:37;19.70;97.90
16955;DHT22;8594;52.052;8.354;2022-07-29T03:53:04;19.60;97.90
16955;DHT22;8594;52.052;8.354;2022-07-29T03:55:36;19.60;97.90
16955;DHT22;8594;52.052;8.354;2022-07-29T03:58:07;19.60;97.80
16955;DHT22;8594;52.052;8.354;2022-07-29T04:00:34;19.50;97.80
16955;DHT22;8594;52.052;8.354;2022-07-29T04:03:04;19.40;98.10
16955;DHT22;8594;52.052;8.354;2022-07-29T04:05:32;19.40;98.10
16955;DHT22;8594;52.052;8.354;2022-07-29T04:07:59;19.40;98.10
16955;DHT22;8594;52.052;8.354;2022-07-29T04:10:26;19.40;98.20
16955;DHT22;8594;52.052;8.354;2022-07-29T04:12:53;19.40;98.00
16955;DHT22;8594;52.052;8.354;2022-07-29T04:15:20;19.40;98.10
16955;DHT22;8594;52.052;8.354;2022-07-29T04:17:46;19.30;98.20
16955;DHT22;8594;52.052;8.354;2022-07-29T04:20:13;19.30;98.20
16955;DHT22;8594;52.052;8.354;2022-07-29T04:22:41;19.30;98.10
16955;DHT22;8594;52.052;8.354;2022-07-29T04:25:09;19.30;98.20
16955;DHT22;8594;52.052;8.354;2022-07-29T04:27:35;19.30;98.20
16955;DHT22;8594;52.052;8.354;2022-07-29T04:30:22;19.20;98.30
16955;DHT22;8594;52.052;8.354;2022-07-29T04:32:49;19.10;98.60
16955;DHT22;8594;52.052;8.354;2022-07-29T04:35:16;19.10;98.60
16955;DHT22;8594;52.052;8.354;2022-07-29T04:37:44;19.20;98.40
16955;DHT22;8594;52.052;8.354;2022-07-29T04:40:11;19.40;98.10
16955;DHT22;8594;52.052;8.354;2022-07-29T04:42:38;19.60;97.80
16955;DHT22;8594;52.052;8.354;2022-07-29T04:45:06;19.70;97.80
16955;DHT22;8594;52.052;8.354;2022-07-29T04:47:33;19.50;98.00
16955;DHT22;8594;52.052;8.354;2022-07-29T04:50:00;19.60;98.10
16955;DHT22;8594;52.052;8.354;2022-07-29T04:52:27;19.60;98.00
16955;DHT22;8594;52.052;8.354;2022-07-29T04:54:55;19.60;98.10
16955;DHT22;8594;52.052;8.354;2022-07-29T04:57:22;19.70;97.90
16955;DHT22;8594;52.052;8.354;2022-07-29T04:59:49;19.80;97.80
16955;DHT22;8594;52.052;8.354;2022-07-29T05:02:16;19.90;97.60
16955;DHT22;8594;52.052;8.354;2022-07-29T05:04:42;19.90;97.50
16955;DHT22;8594;52.052;8.354;2022-07-29T05:07:09;20.00;97.50
16955;DHT22;8594;52.052;8.354;2022-07-29T05:09:36;20.10;97.30
16955;DHT22;8594;52.052;8.354;2022-07-29T05:12:05;20.00;97.50
16955;DHT22;8594;52.052;8.354;2022-07-29T05:14:33;20.30;97.30
16955;DHT22;8594;52.052;8.354;2022-07-29T05:17:00;20.40;96.90
16955;DHT22;8594;52.052;8.354;2022-07-29T05:19:27;20.30;96.80
16955;DHT22;8594;52.052;8.354;2022-07-29T05:21:54;20.30;97.10
16955;DHT22;8594;52.052;8.354;2022-07-29T05:24:20;20.40;97.00
16955;DHT22;8594;52.052;8.354;2022-07-29T05:26:47;20.50;97.10
16955;DHT22;8594;52.052;8.354;2022-07-29T05:29:15;20.60;96.70
16955;DHT22;8594;52.052;8.354;2022-07-29T05:31:42;20.50;97.00
16955;DHT22;8594;52.052;8.354;2022-07-29T05:34:09;20.40;97.10
16955;DHT22;8594;52.052;8.354;2022-07-29T05:36:36;20.50;97.20
16955;DHT22;8594;52.052;8.354;2022-07-29T05:39:03;20.50;97.20
16955;DHT22;8594;52.052;8.354;2022-07-29T05:41:31;20.50;97.00
16955;DHT22;8594;52.052;8.354;2022-07-29T05:43:58;20.60;97.10
16955;DHT22;8594;52.052;8.354;2022-07-29T05:46:26;20.60;97.00
16955;DHT22;8594;52.052;8.354;2022-07-29T05:48:53;20.60;97.00
16955;DHT22;8594;52.052;8.354;2022-07-29T05:51:20;20.60;97.00
16955;DHT22;8594;52.052;8.354;2022-07-29T05:53:47;20.60;97.10
16955;DHT22;8594;52.052;8.354;2022-07-29T05:56:14;20.40;97.30
16955;DHT22;8594;52.052;8.354;2022-07-29T05:58:41;20.30;97.60
16955;DHT22;8594;52.052;8.354;2022-07-29T06:01:08;20.20;97.70
16955;DHT22;8594;52.052;8.354;2022-07-29T06:03:36;20.20;97.90
16955;DHT22;8594;52.052;8.354;2022-07-29T06:06:04;20.10;98.00
16955;DHT22;8594;52.052;8.354;2022-07-29T06:08:32;20.10;98.10
16955;DHT22;8594;52.052;8.354;2022-07-29T06:11:00;20.20;98.00
16955;DHT22;8594;52.052;8.354;2022-07-29T06:13:27;20.20;98.00
16955;DHT22;8594;52.052;8.354;2022-07-29T06:15:53;20.10;98.10
16955;DHT22;8594;52.052;8.354;2022-07-29T06:18:21;20.20;98.30
16955;DHT22;8594;52.052;8.354;2022-07-29T06:20:50;20.10;98.20
16955;DHT22;8594;52.052;8.354;2022-07-29T06:23:17;20.20;98.50
16955;DHT22;8594;52.052;8.354;2022-07-29T06:25:45;20.00;98.60
16955;DHT22;8594;52.052;8.354;2022-07-29T06:28:12;20.00;99.00
16955;DHT22;8594;52.052;8.354;2022-07-29T06:30:39;20.10;99.10
16955;DHT22;8594;52.052;8.354;2022-07-29T06:33:06;20.10;99.20
16955;DHT22;8594;52.052;8.354;2022-07-29T06:35:33;20.20;98.80
16955;DHT22;8594;52.052;8.354;2022-07-29T06:38:03;20.40;98.30
16955;DHT22;8594;52.052;8.354;2022-07-29T06:40:30;20.60;97.90
16955;DHT22;8594;52.052;8.354;2022-07-29T06:43:14;20.90;97.70
16955;DHT22;8594;52.052;8.354;2022-07-29T06:45:41;21.10;97.20
16955;DHT22;8594;52.052;8.354;2022-07-29T06:48:08;21.30;97.00
16955;DHT22;8594;52.052;8.354;2022-07-29T06:50:35;21.40;96.90
16955;DHT22;8594;52.052;8.354;2022-07-29T06:53:03;21.40;96.60
16955;DHT22;8594;52.052;8.354;2022-07-29T06:55:30;21.30;96.60
16955;DHT22;8594;52.052;8.354;2022-07-29T06:57:57;21.30;97.00
16955;DHT22;8594;52.052;8.354;2022-07-29T07:00:24;21.20;97.00
16955;DHT22;8594;52.052;8.354;2022-07-29T07:02:51;21.30;97.30
16955;DHT22;8594;52.052;8.354;2022-07-29T07:05:18;21.60;97.10
16955;DHT22;8594;52.052;8.354;2022-07-29T07:07:45;21.70;96.90
16955;DHT22;8594;52.052;8.354;2022-07-29T07:10:13;22.20;96.60
16955;DHT22;8594;52.052;8.354;2022-07-29T07:12:40;22.80;96.20
16955;DHT22;8594;52.052;8.354;2022-07-29T07:15:07;23.00;95.00
16955;DHT22;8594;52.052;8.354;2022-07-29T07:17:35;23.30;94.70
16955;DHT22;8594;52.052;8.354;2022-07-29T07:20:04;23.60;94.80
16955;DHT22;8594;52.052;8.354;2022-07-29T07:22:31;23.50;94.40
16955;DHT22;8594;52.052;8.354;2022-07-29T07:24:58;23.40;95.00
16955;DHT22;8594;52.052;8.354;2022-07-29T07:27:26;23.60;94.80
16955;DHT22;8594;52.052;8.354;2022-07-29T07:29:53;23.60;94.30
16955;DHT22;8594;52.052;8.354;2022-07-29T07:32:20;23.70;95.10
16955;DHT22;8594;52.052;8.354;2022-07-29T07:34:47;23.40;94.80
16955;DHT22;8594;52.052;8.354;2022-07-29T07:37:14;23.50;95.50
16955;DHT22;8594;52.052;8.354;2022-07-29T07:39:41;23.40;94.80
16955;DHT22;8594;52.052;8.354;2022-07-29T07:42:09;23.40;94.40
16955;DHT22;8594;52.052;8.354;2022-07-29T07:44:39;22.80;95.60
16955;DHT22;8594;52.052;8.354;2022-07-29T07:47:06;22.80;95.50
16955;DHT22;8594;52.052;8.354;2022-07-29T07:49:33;22.80;95.40
16955;DHT22;8594;52.052;8.354;2022-07-29T07:52:00;23.10;95.50
16955;DHT22;8594;52.052;8.354;2022-07-29T07:54:26;23.30;94.90
16955;DHT22;8594;52.052;8.354;2022-07-29T07:56:53;23.40;94.70
16955;DHT22;8594;52.052;8.354;2022-07-29T07:59:20;23.30;94.70
16955;DHT22;8594;52.052;8.354;2022-07-29T08:01:48;23.20;94.30
16955;DHT22;8594;52.052;8.354;2022-07-29T08:04:16;23.10;94.80
16955;DHT22;8594;52.052;8.354;2022-07-29T08:06:43;22.70;95.70
16955;DHT22;8594;52.052;8.354;2022-07-29T08:09:10;22.60;96.00
16955;DHT22;8594;52.052;8.354;2022-07-29T08:11:36;22.50;96.10
16955;DHT22;8594;52.052;8.354;2022-07-29T08:14:03;22.60;95.40
16955;DHT22;8594;52.052;8.354;2022-07-29T08:16:30;22.70;95.80
16955;DHT22;8594;52.052;8.354;2022-07-29T08:18:58;22.70;97.20
16955;DHT22;8594;52.052;8.354;2022-07-29T08:21:25;22.80;96.60
16955;DHT22;8594;52.052;8.354;2022-07-29T08:23:52;23.10;96.10
16955;DHT22;8594;52.052;8.354;2022-07-29T08:26:40;23.80;95.30
16955;DHT22;8594;52.052;8.354;2022-07-29T08:29:07;24.20;94.80
16955;DHT22;8594;52.052;8.354;2022-07-29T08:31:33;24.50;94.40
16955;DHT22;8594;52.052;8.354;2022-07-29T08:34:02;24.50;94.40
16955;DHT22;8594;52.052;8.354;2022-07-29T08:36:29;25.10;93.80
16955;DHT22;8594;52.052;8.354;2022-07-29T08:38:56;25.70;93.00
16955;DHT22;8594;52.052;8.354;2022-07-29T08:41:23;25.90;92.50
16955;DHT22;8594;52.052;8.354;2022-07-29T08:43:51;26.00;91.80
16955;DHT22;8594;52.052;8.354;2022-07-29T08:46:18;26.40;92.70
16955;DHT22;8594;52.052;8.354;2022-07-29T08:48:46;26.60;91.40
16955;DHT22;8594;52.052;8.354;2022-07-29T08:51:16;26.90;91.50
16955;DHT22;8594;52.052;8.354;2022-07-29T08:53:47;27.20;90.90
16955;DHT22;8594;52.052;8.354;2022-07-29T08:56:16;27.20;90.10
16955;DHT22;8594;52.052;8.354;2022-07-29T08:58:45;27.20;90.50
16955;DHT22;8594;52.052;8.354;2022-07-29T09:01:16;26.90;90.60
16955;DHT22;8594;52.052;8.354;2022-07-29T09:03:47;26.30;88.80
16955;DHT22;8594;52.052;8.354;2022-07-29T09:06:18;26.20;90.80
16955;DHT22;8594;52.052;8.354;2022-07-29T09:08:48;26.20;90.90
16955;DHT22;8594;52.052;8.354;2022-07-29T09:11:15;26.10;90.80
16955;DHT22;8594;52.052;8.354;2022-07-29T09:17:02;25.70;91.60
16955;DHT22;8594;52.052;8.354;2022-07-29T09:19:31;25.40;91.30
16955;DHT22;8594;52.052;8.354;2022-07-29T09:22:03;25.40;91.60
16955;DHT22;8594;52.052;8.354;2022-07-29T09:24:39;25.80;91.70
16955;DHT22;8594;52.052;8.354;2022-07-29T09:27:10;26.00;90.60
16955;DHT22;8594;52.052;8.354;2022-07-29T09:29:45;26.00;90.80
16955;DHT22;8594;52.052;8.354;2022-07-29T09:32:12;26.10;91.00
16955;DHT22;8594;52.052;8.354;2022-07-29T09:34:39;26.00;91.30
16955;DHT22;8594;52.052;8.354;2022-07-29T09:37:08;25.90;90.80
16955;DHT22;8594;52.052;8.354;2022-07-29T09:39:37;26.10;91.10
16955;DHT22;8594;52.052;8.354;2022-07-29T09:42:11;26.20;91.30
16955;DHT22;8594;52.052;8.354;2022-07-29T09:44:45;26.20;91.20
16955;DHT22;8594;52.052;8.354;2022-07-29T09:47:17;26.10;90.80
16955;DHT22;8594;52.052;8.354;2022-07-29T09:49:52;25.70;90.90
16955;DHT22;8594;52.052;8.354;2022-07-29T09:52:21;25.60;91.40
16955;DHT22;8594;52.052;8.354;2022-07-29T09:54:48;25.50;91.30
16955;DHT22;8594;52.052;8.354;2022-07-29T09:57:23;25.50;91.30
16955;DHT22;8594;52.052;8.354;2022-07-29T09:59:59;25.60;91.60
16955;DHT22;8594;52.052;8.354;2022-07-29T10:02:34;25.60;90.90
16955;DHT22;8594;52.052;8.354;2022-07-29T10:05:05;25.60;90.90
16955;DHT22;8594;52.052;8.354;2022-07-29T10:07:48;25.60;90.90
16955;DHT22;8594;52.052;8.354;2022-07-29T10:10:21;25.80;91.20
16955;DHT22;8594;52.052;8.354;2022-07-29T10:12:52;26.00;91.20
16955;DHT22;8594;52.052;8.354;2022-07-29T10:15:22;26.20;90.60
16955;DHT22;8594;52.052;8.354;2022-07-29T10:17:51;26.30;89.70
16955;DHT22;8594;52.052;8.354;2022-07-29T10:20:19;26.40;89.80
16955;DHT22;8594;52.052;8.354;2022-07-29T10:22:49;26.50;88.80
16955;DHT22;8594;52.052;8.354;2022-07-29T10:25:17;26.30;88.60
16955;DHT22;8594;52.052;8.354;2022-07-29T10:27:47;26.40;90.10
16955;DHT22;8594;52.052;8.354;2022-07-29T10:30:17;26.60;90.00
16955;DHT22;8594;52.052;8.354;2022-07-29T10:33:17;26.70;89.20
16955;DHT22;8594;52.052;8.354;2022-07-29T10:36:02;26.70;88.40
16955;DHT22;8594;52.052;8.354;2022-07-29T10:38:52;27.00;88.00
16955;DHT22;8594;52.052;8.354;2022-07-29T10:41:38;26.90;87.00
16955;DHT22;8594;52.052;8.354;2022-07-29T10:44:17;26.70;88.40
16955;DHT22;8594;52.052;8.354;2022-07-29T10:46:46;26.60;88.30
16955;DHT22;8594;52.052;8.354;2022-07-29T10:49:14;26.50;89.00
16955;DHT22;8594;52.052;8.354;2022-07-29T10:51:56;26.60;88.30
16955;DHT22;8594;52.052;8.354;2022-07-29T10:54:44;26.60;87.40
16955;DHT22;8594;52.052;8.354;2022-07-29T10:57:21;26.30;88.30
16955;DHT22;8594;52.052;8.354;2022-07-29T11:00:28;26.30;87.50
16955;DHT22;8594;52.052;8.354;2022-07-29T11:02:57;26.20;87.60
16955;DHT22;8594;52.052;8.354;2022-07-29T11:05:24;26.00;87.50
16955;DHT22;8594;52.052;8.354;2022-07-29T11:08:20;26.10;88.20
16955;DHT22;8594;52.052;8.354;2022-07-29T11:10:52;26.20;87.90
16955;DHT22;8594;52.052;8.354;2022-07-29T11:13:49;26.40;87.80
16955;DHT22;8594;52.052;8.354;2022-07-29T11:16:19;26.60;87.90
16955;DHT22;8594;52.052;8.354;2022-07-29T11:19:20;26.60;87.70
16955;DHT22;8594;52.052;8.354;2022-07-29T11:21:49;26.80;87.50
16955;DHT22;8594;52.052;8.354;2022-07-29T11:24:20;26.80;87.60
16955;DHT22;8594;52.052;8.354;2022-07-29T11:27:10;27.10;87.40
16955;DHT22;8594;52.052;8.354;2022-07-29T11:29:50;27.40;87.00
16955;DHT22;8594;52.052;8.354;2022-07-29T11:32:19;27.10;86.40
16955;DHT22;8594;52.052;8.354;2022-07-29T11:34:48;26.80;87.40
16955;DHT22;8594;52.052;8.354;2022-07-29T11:37:20;26.70;88.30
16955;DHT22;8594;52.052;8.354;2022-07-29T11:42:52;26.60;88.40
16955;DHT22;8594;52.052;8.354;2022-07-29T11:45:23;26.70;88.50
16955;DHT22;8594;52.052;8.354;2022-07-29T11:47:58;27.00;88.10
16955;DHT22;8594;52.052;8.354;2022-07-29T11:50:33;27.20;87.90
16955;DHT22;8594;52.052;8.354;2022-07-29T11:53:05;27.40;88.40
16955;DHT22;8594;52.052;8.354;2022-07-29T11:55:38;27.40;87.60
16955;DHT22;8594;52.052;8.354;2022-07-29T11:58:07;27.70;88.20
16955;DHT22;8594;52.052;8.354;2022-07-29T12:00:36;27.90;87.80
16955;DHT22;8594;52.052;8.354;2022-07-29T12:03:06;28.00;87.60
16955;DHT22;8594;52.052;8.354;2022-07-29T12:05:38;28.00;87.50
16955;DHT22;8594;52.052;8.354;2022-07-29T12:08:13;28.20;87.90
16955;DHT22;8594;52.052;8.354;2022-07-29T12:10:44;28.20;88.30
16955;DHT22;8594;52.052;8.354;2022-07-29T12:13:14;28.10;87.30
16955;DHT22;8594;52.052;8.354;2022-07-29T12:15:50;28.10;87.50
16955;DHT22;8594;52.052;8.354;2022-07-29T12:18:19;28.30;87.20
16955;DHT22;8594;52.052;8.354;2022-07-29T12:20:47;28.40;86.60
16955;DHT22;8594;52.052;8.354;2022-07-29T12:23:15;28.50;87.30
16955;DHT22;8594;52.052;8.354;2022-07-29T12:25:44;28.40;86.50
16955;DHT22;8594;52.052;8.354;2022-07-29T12:28:13;28.40;86.90
16955;DHT22;8594;52.052;8.354;2022-07-29T12:30:45;28.20;87.20
16955;DHT22;8594;52.052;8.354;2022-07-29T12:33:25;28.10;87.10
16955;DHT22;8594;52.052;8.354;2022-07-29T12:35:55;27.90;87.30
16955;DHT22;8594;52.052;8.354;2022-07-29T12:38:24;28.00;87.50
16955;DHT22;8594;52.052;8.354;2022-07-29T12:40:53;28.00;87.20
16955;DHT22;8594;52.052;8.354;2022-07-29T12:43:23;28.00;87.30
16955;DHT22;8594;52.052;8.354;2022-07-29T12:45:52;27.90;86.90
16955;DHT22;8594;52.052;8.354;2022-07-29T12:48:33;28.00;87.70
16955;DHT22;8594;52.052;8.354;2022-07-29T12:51:02;28.00;87.20
16955;DHT22;8594;52.052;8.354;2022-07-29T12:53:30;28.00;88.90
16955;DHT22;8594;52.052;8.354;2022-07-29T12:55:58;27.80;87.40
16955;DHT22;8594;52.052;8.354;2022-07-29T12:58:33;27.50;87.40
16955;DHT22;8594;52.052;8.354;2022-07-29T13:01:04;27.60;88.20
16955;DHT22;8594;52.052;8.354;2022-07-29T13:03:46;27.40;88.80
16955;DHT22;8594;52.052;8.354;2022-07-29T13:06:32;27.40;88.10
16955;DHT22;8594;52.052;8.354;2022-07-29T13:09:06;27.20;88.30
16955;DHT22;8594;52.052;8.354;2022-07-29T13:11:36;27.20;88.30
16955;DHT22;8594;52.052;8.354;2022-07-29T13:14:07;27.00;88.20
16955;DHT22;8594;52.052;8.354;2022-07-29T13:16:35;27.10;88.60
16955;DHT22;8594;52.052;8.354;2022-07-29T13:19:04;27.10;88.10
16955;DHT22;8594;52.052;8.354;2022-07-29T13:21:32;27.30;88.20
16955;DHT22;8594;52.052;8.354;2022-07-29T13:24:00;26.90;88.00
16955;DHT22;8594;52.052;8.354;2022-07-29T13:26:27;26.80;88.90
16955;DHT22;8594;52.052;8.354;2022-07-29T13:28:54;26.60;89.70
16955;DHT22;8594;52.052;8.354;2022-07-29T13:31:23;26.50;89.90
16955;DHT22;8594;52.052;8.354;2022-07-29T13:33:50;26.80;89.00
16955;DHT22;8594;52.052;8.354;2022-07-29T13:36:17;27.00;88.70
16955;DHT22;8594;52.052;8.354;2022-07-29T13:38:44;27.10;89.60
16955;DHT22;8594;52.052;8.354;2022-07-29T13:41:11;27.10;90.00
16955;DHT22;8594;52.052;8.354;2022-07-29T13:43:38;27.10;90.30
16955;DHT22;8594;52.052;8.354;2022-07-29T13:46:04;27.00;89.90
16955;DHT22;8594;52.052;8.354;2022-07-29T13:48:33;26.90;89.30
16955;DHT22;8594;52.052;8.354;2022-07-29T13:51:00;26.90;89.30
16955;DHT22;8594;52.052;8.354;2022-07-29T13:53:27;27.00;89.20
16955;DHT22;8594;52.052;8.354;2022-07-29T13:55:54;26.90;88.90
16955;DHT22;8594;52.052;8.354;2022-07-29T13:58:21;26.80;90.00
16955;DHT22;8594;52.052;8.354;2022-07-29T14:00:48;27.00;89.40
16955;DHT22;8594;52.052;8.354;2022-07-29T14:03:15;27.10;89.40
16955;DHT22;8594;52.052;8.354;2022-07-29T14:05:44;27.20;89.60
16955;DHT22;8594;52.052;8.354;2022-07-29T14:08:10;27.20;89.80
16955;DHT22;8594;52.052;8.354;2022-07-29T14:10:37;27.20;89.70
16955;DHT22;8594;52.052;8.354;2022-07-29T14:13:04;27.20;89.80
16955;DHT22;8594;52.052;8.354;2022-07-29T14:15:31;27.00;90.00
16955;DHT22;8594;52.052;8.354;2022-07-29T14:17:58;26.70;90.20
16955;DHT22;8594;52.052;8.354;2022-07-29T14:20:25;26.70;90.50
16955;DHT22;8594;52.052;8.354;2022-07-29T14:22:55;26.70;90.00
16955;DHT22;8594;52.052;8.354;2022-07-29T14:25:22;26.70;90.30
16955;DHT22;8594;52.052;8.354;2022-07-29T14:27:49;26.70;90.40
16955;DHT22;8594;52.052;8.354;2022-07-29T14:30:18;26.70;90.20
16955;DHT22;8594;52.052;8.354;2022-07-29T14:32:46;26.80;90.40
16955;DHT22;8594;52.052;8.354;2022-07-29T14:35:13;26.80;90.50
16955;DHT22;8594;52.052;8.354;2022-07-29T14:37:40;26.80;90.50
16955;DHT22;8594;52.052;8.354;2022-07-29T14:40:10;26.80;90.40
16955;DHT22;8594;52.052;8.354;2022-07-29T14:42:37;26.90;89.80
16955;DHT22;8594;52.052;8.354;2022-07-29T14:45:06;26.90;90.00
16955;DHT22;8594;52.052;8.354;2022-07-29T14:47:36;27.00;90.30
16955;DHT22;8594;52.052;8.354;2022-07-29T14:50:04;27.00;91.50
16955;DHT22;8594;52.052;8.354;2022-07-29T14:52:32;26.70;91.30
16955;DHT22;8594;52.052;8.354;2022-07-29T14:54:59;26.50;92.10
16955;DHT22;8594;52.052;8.354;2022-07-29T14:57:27;26.50;92.20
16955;DHT22;8594;52.052;8.354;2022-07-29T14:59:55;26.40;92.70
16955;DHT22;8594;52.052;8.354;2022-07-29T15:02:22;26.20;93.00
16955;DHT22;8594;52.052;8.354;2022-07-29T15:04:49;26.10;93.30
16955;DHT22;8594;52.052;8.354;2022-07-29T15:07:16;26.10;93.30
16955;DHT22;8594;52.052;8.354;2022-07-29T15:09:43;26.00;93.50
16955;DHT22;8594;52.052;8.354;2022-07-29T15:12:11;25.70;93.30
16955;DHT22;8594;52.052;8.354;2022-07-29T15:14:39;25.70;93.60
16955;DHT22;8594;52.052;8.354;2022-07-29T15:17:06;25.80;93.50
16955;DHT22;8594;52.052;8.354;2022-07-29T15:19:33;25.80;93.40
16955;DHT22;8594;52.052;8.354;2022-07-29T15:22:01;25.70;93.40
16955;DHT22;8594;52.052;8.354;2022-07-29T15:24:29;25.50;93.60
16955;DHT22;8594;52.052;8.354;2022-07-29T15:26:57;25.60;94.00
16955;DHT22;8594;52.052;8.354;2022-07-29T15:29:24;25.60;94.00
16955;DHT22;8594;52.052;8.354;2022-07-29T15:31:52;26.00;93.10
16955;DHT22;8594;52.052;8.354;2022-07-29T15:34:19;26.00;93.50
16955;DHT22;8594;52.052;8.354;2022-07-29T15:36:49;25.60;94.00
16955;DHT22;8594;52.052;8.354;2022-07-29T15:39:16;25.40;94.10
16955;DHT22;8594;52.052;8.354;2022-07-29T15:41:43;25.40;94.30
16955;DHT22;8594;52.052;8.354;2022-07-29T15:44:10;25.30;94.30
16955;DHT22;8594;52.052;8.354;2022-07-29T15:46:40;25.10;94.60
16955;DHT22;8594;52.052;8.354;2022-07-29T15:49:26;25.00;95.10
16955;DHT22;8594;52.052;8.354;2022-07-29T15:51:57;24.90;95.10
16955;DHT22;8594;52.052;8.354;2022-07-29T15:54:24;24.70;95.30
16955;DHT22;8594;52.052;8.354;2022-07-29T15:56:51;24.60;95.70
16955;DHT22;8594;52.052;8.354;2022-07-29T15:59:19;24.80;95.80
16955;DHT22;8594;52.052;8.354;2022-07-29T16:01:46;24.60;96.30
16955;DHT22;8594;52.052;8.354;2022-07-29T16:04:13;24.40;96.80
16955;DHT22;8594;52.052;8.354;2022-07-29T16:06:42;24.00;97.20
16955;DHT22;8594;52.052;8.354;2022-07-29T16:09:09;23.90;97.60